Thunder radar more information blitzortung!


Radar de pluja more information rain snow radar


Visita la nostra xarxa de llocs de meteo:

Template documentation
and downloads

And another site



No particular awareness of the weather is required.    There are no Weather-warnings

Pagina Historial Weather Underground text

Diari Resum Novembre 20, 2017 Unitats:  Imperial    Mètric   Tant
« Previous Dia
SegĂźent Dia »
Diari Setmana Mensual Anual Personalitzada
  Maxima: Minima: Media:
Temperatura: 63.1 °F 39.4 °F 52.2 °F
Punt de rosada: 42.1 °F 30 °F 36.3 °F
Humitat: 71 % 45 % 55 %
Wind Speed: 5.8 mph 0 mph 1.5 mph
RĂ fegues de vent: 5.8 mph - -
Vent:- - South
Pression baro: 30.3 in 30.2 in -
Precipitacions: 0 in    
Historical Graphs
 
 
Dades de taula per Novembre 20, 2017
Temps Temperatura Punt de rosada Pression baro Vent Wind Speed RĂ fegues de vent Humitat Rainfall Rate (Hourly)
00:04 45.3 °F 33.1 °F 30.2 in Calm     62 % 0 in
00:10 39.9 °F 30.6 °F 30.2 in Calm   2 mph 69 % 0 in
00:20 39.7 °F 30.4 °F 30.2 in Calm   2 mph 69 % 0 in
00:30 39.7 °F 30.4 °F 30.2 in Calm   1 mph 69 % 0 in
00:40 39.4 °F 30 °F 30.2 in Calm   2 mph 69 % 0 in
00:50 39.6 °F 30.2 °F 30.2 in WNW 1 mph 2 mph 69 % 0 in
01:00 39.6 °F 30.2 °F 30.2 in Calm   2 mph 69 % 0 in
01:10 39.6 °F 30.6 °F 30.2 in West 1 mph 1 mph 70 % 0 in
01:20 39.6 °F 30.6 °F 30.2 in NW 1 mph 1 mph 70 % 0 in
01:30 39.6 °F 30.6 °F 30.2 in NW 1 mph 2 mph 70 % 0 in
01:40 39.7 °F 30.7 °F 30.2 in Calm   2 mph 70 % 0 in
01:50 39.7 °F 31.1 °F 30.2 in Calm   1 mph 71 % 0 in
02:00 39.7 °F 31.1 °F 30.2 in Calm   2 mph 71 % 0 in
02:10 39.7 °F 30.7 °F 30.2 in NNE 1 mph 2 mph 70 % 0 in
02:20 40.1 °F 31.1 °F 30.2 in WNW 1 mph 1 mph 70 % 0 in
02:30 40.5 °F 31.8 °F 30.2 in Calm   2 mph 71 % 0 in
02:40 41 °F 32 °F 30.2 in WSW 1 mph 2 mph 70 % 0 in
02:50 41.7 °F 32.7 °F 30.2 in WSW 2 mph 2 mph 70 % 0 in
03:00 42.3 °F 33.3 °F 30.2 in SW 1 mph 2 mph 70 % 0 in
03:10 43.2 °F 33.6 °F 30.2 in SW 1 mph 1 mph 69 % 0 in
03:20 44.6 °F 35.1 °F 30.2 in Calm   2 mph 69 % 0 in
03:30 45.7 °F 35.2 °F 30.2 in SSE 1 mph 1 mph 67 % 0 in
03:40 45.7 °F 35.1 °F 30.2 in East 2 mph 2 mph 66 % 0 in
03:50 46.6 °F 35.4 °F 30.2 in NE 1 mph 2 mph 65 % 0 in
04:00 47.8 °F 36.1 °F 30.2 in NE 1 mph 4 mph 64 % 0 in
04:10 47.5 °F 35.4 °F 30.2 in NE 2 mph 3 mph 63 % 0 in
04:20 49.1 °F 37 °F 30.2 in Calm   2 mph 63 % 0 in
04:30 50 °F 37.6 °F 30.2 in ENE 1 mph 2 mph 62 % 0 in
04:40 51.3 °F 38.7 °F 30.3 in ENE 1 mph 2 mph 62 % 0 in
10:46 52.5 °F 39 °F 30.3 in East 2.6 mph 2.6 mph 60 % 0 in
11:01 52.9 °F 38.8 °F 30.3 in ENE 2.3 mph 2.3 mph 59 % 0 in
11:06 52.9 °F 38.5 °F 30.3 in NNE 2.3 mph 2.3 mph 58 % 0 in
11:16 53.4 °F 39 °F 30.3 in NE 2.3 mph 2.3 mph 58 % 0 in
11:21 54 °F 39.6 °F 30.3 in NNE 1.2 mph 1.2 mph 58 % 0 in
11:36 54.9 °F 39.9 °F 30.3 in ENE 2.4 mph 2.4 mph 57 % 0 in
11:46 55.2 °F 40.3 °F 30.3 in NE 2.3 mph 2.3 mph 57 % 0 in
11:51 55.2 °F 40.3 °F 30.3 in ENE 2.3 mph 2.3 mph 57 % 0 in
11:56 55.6 °F 40.1 °F 30.3 in NE 2.6 mph 2.6 mph 56 % 0 in
12:01 55.9 °F 40.5 °F 30.3 in ENE 2.3 mph 2.3 mph 56 % 0 in
12:11 56.5 °F 41 °F 30.3 in NW 2.6 mph 2.6 mph 56 % 0 in
12:16 56.7 °F 41.2 °F 30.3 in NNW 2.3 mph 2.3 mph 56 % 0 in
12:21 57.2 °F 41.5 °F 30.2 in NNE 1.4 mph   56 % 0 in
12:26 57.6 °F 41.5 °F 30.2 in NNW 1.2 mph   55 % 0 in
12:36 57.4 °F 40.8 °F 30.2 in NE 2.3 mph   54 % 0 in
12:41 57.6 °F 41 °F 30.2 in NNE 2.6 mph 2.6 mph 54 % 0 in
12:56 57.9 °F 40.8 °F 30.2 in East 3.5 mph 3.5 mph 53 % 0 in
13:01 58.1 °F 41 °F 30.2 in SE 2.6 mph   53 % 0 in
13:06 58.1 °F 40.6 °F 30.2 in ESE 3.5 mph 3.5 mph 52 % 0 in
13:21 59 °F 41.9 °F 30.2 in NE 2.4 mph   53 % 0 in
13:26 59.2 °F 42.1 °F 30.2 in NNE 3.5 mph 3.5 mph 53 % 0 in
13:36 59 °F 41.4 °F 30.2 in ENE 3.5 mph 3.5 mph 52 % 0 in
13:41 59.4 °F 41.7 °F 30.2 in NNE 2.4 mph 2.4 mph 52 % 0 in
13:46 59.5 °F 41.9 °F 30.2 in NW 2.3 mph 2.3 mph 52 % 0 in
13:51 59.5 °F 41.4 °F 30.2 in ESE 4.6 mph 4.6 mph 51 % 0 in
13:56 59.7 °F 41.5 °F 30.2 in ENE 2.3 mph 2.3 mph 51 % 0 in
14:01 59.7 °F 41.5 °F 30.2 in NNE 3.3 mph 3.3 mph 51 % 0 in
14:06 59.5 °F 41.4 °F 30.2 in NNW 2.3 mph 2.3 mph 51 % 0 in
14:21 60.1 °F 40.8 °F 30.2 in ESE 5.8 mph 5.8 mph 49 % 0 in
14:36 61 °F 41.7 °F 30.2 in ESE 2.3 mph 2.3 mph 49 % 0 in
14:42 60.8 °F 41.5 °F 30.2 in East 2.3 mph 2.3 mph 49 % 0 in
14:52 60.6 °F 40.8 °F 30.2 in ESE 3.5 mph 3.5 mph 48 % 0 in
14:57 60.8 °F 41 °F 30.2 in ESE 3.5 mph 3.5 mph 48 % 0 in
15:02 61 °F 41.2 °F 30.2 in SSE 1.2 mph   48 % 0 in
15:12 61 °F 40.6 °F 30.2 in East 3.5 mph 3.5 mph 47 % 0 in
15:17 61 °F 40.6 °F 30.2 in SE 3.5 mph 3.5 mph 47 % 0 in
15:22 61.2 °F 40.8 °F 30.2 in ENE 2.3 mph 2.3 mph 47 % 0 in
15:32 61.7 °F 41.4 °F 30.2 in SSE 1.2 mph   47 % 0 in
15:37 61.7 °F 41.7 °F 30.2 in Calm     48 % 0 in
15:52 61.9 °F 41.4 °F 30.2 in East 1.6 mph 1.6 mph 47 % 0 in
15:57 61.9 °F 41.4 °F 30.2 in Calm     47 % 0 in
16:02 61.9 °F 41.4 °F 30.2 in NW 1.6 mph 1.6 mph 47 % 0 in
16:27 63.1 °F 42.1 °F 30.2 in SW 2.4 mph 2.4 mph 46 % 0 in
16:37 63.1 °F 42.1 °F 30.2 in SW 1.2 mph   46 % 0 in
16:42 63.1 °F 41.4 °F 30.2 in SW 1.2 mph   45 % 0 in
16:52 62.6 °F 40.8 °F 30.2 in SW 1.2 mph 1.2 mph 45 % 0 in
16:57 62.6 °F 40.8 °F 30.2 in SW 1.2 mph 1.2 mph 45 % 0 in
17:02 62.2 °F 41.7 °F 30.2 in Calm     47 % 0 in
17:07 61.7 °F 41.7 °F 30.2 in WSW 2.3 mph 2.3 mph 48 % 0 in
17:17 59.7 °F 39.9 °F 30.2 in Calm     48 % 0 in
17:22 59.2 °F 39.6 °F 30.2 in West 2.3 mph 2.3 mph 48 % 0 in
17:27 58.8 °F 39.2 °F 30.2 in Calm     48 % 0 in
17:32 58.3 °F 38.7 °F 30.2 in WSW 2.3 mph 2.3 mph 48 % 0 in
17:37 57.7 °F 38.1 °F 30.2 in WSW 2.3 mph 2.3 mph 48 % 0 in
17:47 57 °F 37.6 °F 30.2 in West 2.3 mph 2.3 mph 48 % 0 in
17:52 56.7 °F 37.2 °F 30.2 in WSW 2.9 mph 2.9 mph 48 % 0 in
17:57 56.3 °F 36.9 °F 30.2 in SW 3.5 mph 3.5 mph 48 % 0 in
18:07 55.9 °F 37 °F 30.2 in SW 2.4 mph 2.4 mph 49 % 0 in
18:12 55.8 °F 36.9 °F 30.2 in WSW 2.3 mph 2.3 mph 49 % 0 in
18:17 55.6 °F 36.7 °F 30.2 in West 2.3 mph 2.3 mph 49 % 0 in
18:22 55.4 °F 36.5 °F 30.2 in West 3.5 mph 3.5 mph 49 % 0 in
18:27 55 °F 36.1 °F 30.2 in West 3.5 mph 3.5 mph 49 % 0 in
18:32 55 °F 36.1 °F 30.2 in WSW 3.5 mph 3.5 mph 49 % 0 in
18:37 54.9 °F 36 °F 30.2 in West 3.1 mph 3.1 mph 49 % 0 in
18:42 54.9 °F 36 °F 30.2 in WSW 2.4 mph 2.4 mph 49 % 0 in
18:47 54.7 °F 36 °F 30.2 in West 3.5 mph 3.5 mph 49 % 0 in
18:52 54.5 °F 35.8 °F 30.2 in SW 4.6 mph 4.6 mph 49 % 0 in
18:57 54.3 °F 35.4 °F 30.2 in WSW 3.3 mph 3.3 mph 49 % 0 in
19:13 53.8 °F 35.6 °F 30.2 in WSW 2.4 mph 2.4 mph 50 % 0 in
19:23 53.6 °F 35.4 °F 30.2 in WSW 2.3 mph 2.3 mph 50 % 0 in
19:28 53.2 °F 35.1 °F 30.2 in WSW 2.3 mph 2.3 mph 50 % 0 in
19:33 53.1 °F 34.9 °F 30.2 in SW 2.3 mph 2.3 mph 50 % 0 in
19:38 52.9 °F 34.7 °F 30.2 in SW 1.4 mph 1.4 mph 50 % 0 in
19:43 52.7 °F 35.1 °F 30.2 in Calm     51 % 0 in
19:45 52.7 °F 35.1 °F 30.2 in Calm     51 % 0 in
20:00 52.2 °F 34.5 °F 30.2 in Calm     51 % 0 in
20:10 52.5 °F 34.9 °F 30.2 in WSW 2.3 mph 2.3 mph 51 % 0 in
20:20 52.2 °F 34.5 °F 30.2 in Calm     51 % 0 in
20:25 52 °F 34.9 °F 30.2 in Calm     52 % 0 in
20:30 51.4 °F 34.3 °F 30.2 in Calm     52 % 0 in
20:40 50.9 °F 34 °F 30.2 in Calm     52 % 0 in
20:45 50.7 °F 33.6 °F 30.2 in Calm     52 % 0 in
20:50 50.4 °F 33.4 °F 30.2 in Calm     52 % 0 in
20:55 50.4 °F 34 °F 30.2 in Calm     53 % 0 in
21:05 50.4 °F 34 °F 30.2 in SW 2.3 mph 2.3 mph 53 % 0 in
21:16 50 °F 33.4 °F 30.2 in WSW 1.2 mph   53 % 0 in
21:36 49.5 °F 33.1 °F 30.2 in Calm     53 % 0 in
21:41 49.3 °F 32.9 °F 30.2 in Calm     53 % 0 in
21:46 48.9 °F 32.5 °F 30.2 in WSW 2.3 mph 2.3 mph 53 % 0 in
21:51 48.7 °F 32.7 °F 30.2 in West 2.3 mph   54 % 0 in
21:56 48.6 °F 32.7 °F 30.2 in Calm     54 % 0 in
22:01 48.2 °F 32.4 °F 30.2 in Calm     54 % 0 in
22:06 48.2 °F 32.4 °F 30.2 in Calm     54 % 0 in
22:11 48 °F 32.2 °F 30.2 in Calm     54 % 0 in
22:31 47.8 °F 32.4 °F 30.2 in Calm     55 % 0 in
22:36 47.7 °F 32.4 °F 30.2 in Calm     55 % 0 in
22:41 47.5 °F 32.2 °F 30.2 in Calm     55 % 0 in
22:46 47.3 °F 31.8 °F 30.2 in Calm     55 % 0 in
22:51 47.3 °F 31.8 °F 30.2 in Calm     55 % 0 in
22:56 47.5 °F 32.5 °F 30.2 in Calm     56 % 0 in
23:01 47.5 °F 32.5 °F 30.2 in Calm     56 % 0 in
23:06 47.3 °F 32.4 °F 30.2 in Calm     56 % 0 in
23:11 47.1 °F 32.2 °F 30.2 in Calm     56 % 0 in
23:21 46.6 °F 32.2 °F 30.2 in NNE 1.2 mph   57 % 0 in
23:26 46.2 °F 31.8 °F 30.2 in WSW 2.3 mph 2.3 mph 57 % 0 in
23:36 45.5 °F 31.6 °F 30.2 in WSW 1.6 mph   58 % 0 in
23:40 43 °F 30 °F 30.2 in NNW 1 mph 2 mph 60 % 0 in
23:41 45.3 °F 31.5 °F 30.2 in Calm     58 % 0 in
23:50 43 °F 30 °F 30.2 in NNW 1 mph 2 mph 60 % 0 in
23:52 45 °F 31.5 °F 30.2 in Calm     59 % 0 in
23:57 44.8 °F 31.3 °F 30.2 in Calm     59 % 0 in
23:58 44.8 °F 30.9 °F 30.2 in Calm     58 % 0 in
Meteo Sesrovires
Elogis d' Weather Underground - 3.25 mb

Guio original per  Jim McMurry - jmcmurry@mwt.net Adaptat per a la plantilla per  Wim van der Kuil - Leuven-Template.eu

Trobareu la nostra informacio del temps tambe a:

Weather Underground

AWEKAS